createdAt,value
2023-03-13T00:00:56.999Z,0.70
2023-03-13T00:03:23.457Z,0.55
2023-03-13T00:05:49.885Z,0.60
2023-03-13T00:08:22.514Z,0.60
2023-03-13T00:10:48.892Z,0.80
2023-03-13T00:13:15.300Z,0.60
2023-03-13T00:15:41.707Z,0.57
2023-03-13T00:18:08.161Z,0.70
2023-03-13T00:20:34.544Z,0.80
2023-03-13T00:23:00.942Z,0.70
2023-03-13T00:25:27.498Z,0.80
2023-03-13T00:27:53.891Z,0.73
2023-03-13T00:30:20.310Z,0.75
2023-03-13T00:32:47.148Z,1.02
2023-03-13T00:35:14.631Z,0.68
2023-03-13T00:37:41.432Z,0.98
2023-03-13T00:40:08.965Z,0.80
2023-03-13T00:42:35.791Z,0.60
2023-03-13T00:45:02.571Z,0.82
2023-03-13T00:47:28.964Z,0.90
2023-03-13T00:49:55.370Z,0.50
2023-03-13T00:52:21.771Z,0.60
2023-03-13T00:54:48.147Z,0.47
2023-03-13T00:57:14.531Z,0.40
2023-03-13T00:59:40.969Z,0.80
2023-03-13T01:02:07.521Z,0.38
2023-03-13T01:04:33.988Z,0.45
2023-03-13T01:07:00.399Z,0.40
2023-03-13T01:09:26.775Z,0.40
2023-03-13T01:11:53.200Z,0.30
2023-03-13T01:14:20.446Z,0.82
2023-03-13T01:16:47.179Z,0.50
2023-03-13T01:19:15.480Z,0.50
2023-03-13T01:21:44.637Z,0.30
2023-03-13T01:24:11.861Z,0.50
2023-03-13T01:26:38.820Z,0.43
2023-03-13T01:29:05.334Z,0.40
2023-03-13T01:31:33.850Z,0.28
2023-03-13T01:34:03.047Z,0.35
2023-03-13T01:36:29.602Z,0.63
2023-03-13T01:38:58.593Z,0.35
2023-03-13T01:41:25.941Z,0.30
2023-03-13T01:43:52.416Z,0.32
2023-03-13T01:46:25.028Z,0.63
2023-03-13T01:49:03.518Z,0.60
2023-03-13T01:51:35.018Z,0.50
2023-03-13T01:54:07.774Z,0.50
2023-03-13T01:57:03.753Z,0.38
2023-03-13T01:59:40.760Z,0.40
2023-03-13T02:02:08.033Z,0.43
2023-03-13T02:04:47.074Z,0.50
2023-03-13T02:07:22.224Z,0.50
2023-03-13T02:09:52.556Z,0.55
2023-03-13T02:12:26.941Z,0.60
2023-03-13T02:14:54.770Z,0.40
2023-03-13T02:17:21.234Z,0.40
2023-03-13T02:19:51.949Z,0.40
2023-03-13T02:22:36.576Z,0.40
2023-03-13T02:25:24.380Z,0.43
2023-03-13T02:27:58.648Z,0.43
2023-03-13T02:30:25.556Z,0.40
2023-03-13T02:32:52.115Z,0.40
2023-03-13T02:35:21.168Z,0.40
2023-03-13T02:37:58.876Z,0.40
2023-03-13T02:40:30.309Z,0.40
2023-03-13T02:43:02.845Z,0.40
2023-03-13T02:45:29.250Z,0.68
2023-03-13T02:47:55.626Z,0.57
2023-03-13T02:50:23.452Z,0.40
2023-03-13T02:52:55.473Z,0.30
2023-03-13T02:55:29.712Z,0.57
2023-03-13T02:57:56.194Z,0.43
2023-03-13T03:00:26.701Z,0.77
2023-03-13T03:02:54.261Z,0.60
2023-03-13T03:05:22.143Z,0.35
2023-03-13T03:07:49.556Z,0.30
2023-03-13T03:10:16.966Z,0.43
2023-03-13T03:12:43.345Z,0.47
2023-03-13T03:15:10.267Z,0.60
2023-03-13T03:17:36.994Z,0.40
2023-03-13T03:20:07.808Z,0.60
2023-03-13T03:22:34.699Z,0.30
2023-03-13T03:25:01.190Z,0.30
2023-03-13T03:27:27.568Z,0.30
2023-03-13T03:29:53.932Z,0.20
2023-03-13T03:32:21.110Z,0.30
2023-03-13T03:34:47.515Z,0.52
2023-03-13T03:37:13.889Z,0.40
2023-03-13T03:40:02.430Z,0.38
2023-03-13T03:42:28.790Z,0.32
2023-03-13T03:44:55.212Z,0.28
2023-03-13T03:47:21.597Z,0.20
2023-03-13T03:49:48.011Z,0.40
2023-03-13T03:52:14.385Z,0.22
2023-03-13T03:54:40.928Z,0.20
2023-03-13T03:57:08.448Z,0.22
2023-03-13T03:59:34.832Z,0.40
2023-03-13T04:02:01.304Z,0.22
2023-03-13T04:04:27.917Z,0.32
2023-03-13T04:06:54.316Z,0.30
2023-03-13T04:09:25.955Z,0.22
2023-03-13T04:11:52.344Z,0.20
2023-03-13T04:14:18.720Z,0.32
2023-03-13T04:16:45.145Z,0.43
2023-03-13T04:19:11.608Z,0.40
2023-03-13T04:21:39.597Z,0.20
2023-03-13T04:24:06.288Z,0.22
2023-03-13T04:26:32.693Z,0.30
2023-03-13T04:28:59.069Z,0.52
2023-03-13T04:31:25.504Z,0.40
2023-03-13T04:33:52.190Z,0.20
2023-03-13T04:36:18.637Z,0.32
2023-03-13T04:38:46.061Z,0.60
2023-03-13T04:41:12.441Z,0.40
2023-03-13T04:43:38.834Z,0.50
2023-03-13T04:46:05.252Z,0.28
2023-03-13T04:48:31.640Z,0.40
2023-03-13T04:50:58.010Z,0.60
2023-03-13T04:53:24.422Z,0.40
2023-03-13T04:55:56.932Z,0.40
2023-03-13T04:58:23.321Z,0.60
2023-03-13T05:00:54.989Z,0.50
2023-03-13T05:03:37.752Z,0.50
2023-03-13T05:06:23.440Z,0.40
2023-03-13T05:08:49.816Z,0.47
2023-03-13T05:11:16.206Z,0.43
2023-03-13T05:13:43.578Z,0.60
2023-03-13T05:16:10.135Z,0.55
2023-03-13T05:18:36.515Z,0.50
2023-03-13T05:21:19.549Z,0.40
2023-03-13T05:23:46.051Z,0.70
2023-03-13T05:26:13.548Z,0.30
2023-03-13T05:28:39.932Z,0.40
2023-03-13T05:31:07.360Z,0.40
2023-03-13T05:33:33.873Z,0.55
2023-03-13T06:05:34.350Z,0.52
2023-03-13T06:08:01.298Z,0.70
2023-03-13T06:10:28.075Z,0.85
2023-03-13T06:12:55.868Z,0.70
2023-03-13T06:15:23.006Z,0.70
2023-03-13T06:17:49.504Z,0.60
2023-03-13T06:20:15.960Z,0.90
2023-03-13T06:22:42.663Z,0.60
2023-03-13T06:25:09.376Z,0.95
2023-03-13T06:27:35.777Z,0.65
2023-03-13T06:30:02.948Z,0.90
2023-03-13T06:32:29.496Z,0.60
2023-03-13T06:34:55.958Z,1.08
2023-03-13T06:37:22.353Z,0.98
2023-03-13T06:39:48.719Z,0.60
2023-03-13T06:42:15.087Z,0.57
2023-03-13T06:44:41.854Z,0.65
2023-03-13T06:47:08.325Z,0.52
2023-03-13T06:49:34.761Z,1.00
2023-03-13T06:52:01.260Z,0.70
2023-03-13T06:54:27.926Z,0.90
2023-03-13T06:56:54.422Z,0.60
2023-03-13T06:59:20.793Z,0.73
2023-03-13T07:01:47.235Z,0.45
2023-03-13T07:04:14.042Z,0.60
2023-03-13T07:06:40.547Z,0.60
2023-03-13T07:09:07.009Z,0.68
2023-03-13T07:11:33.507Z,0.60
2023-03-13T07:14:15.372Z,0.68
2023-03-13T07:16:43.692Z,0.80
2023-03-13T07:19:10.212Z,0.73
2023-03-13T07:21:36.646Z,0.77
2023-03-13T07:24:03.227Z,0.70
2023-03-13T07:26:48.573Z,0.65
2023-03-13T07:29:20.824Z,0.70
2023-03-13T07:31:47.255Z,1.00
2023-03-13T07:34:13.703Z,0.70
2023-03-13T07:36:41.592Z,0.63
2023-03-13T07:39:08.466Z,0.90
2023-03-13T07:41:34.933Z,1.08
2023-03-13T07:44:01.317Z,0.90
2023-03-13T07:46:27.924Z,0.82
2023-03-13T07:48:55.194Z,1.00
2023-03-13T07:51:36.789Z,1.20
2023-03-13T07:54:07.141Z,1.30
2023-03-13T07:56:33.557Z,0.60
2023-03-13T07:58:59.948Z,0.80
2023-03-13T08:01:30.306Z,0.70
2023-03-13T08:03:58.547Z,1.02
2023-03-13T08:06:26.445Z,0.90
2023-03-13T08:08:53.703Z,0.60
2023-03-13T08:11:24.313Z,0.40
2023-03-13T08:13:51.186Z,0.77
2023-03-13T08:16:19.694Z,0.20
2023-03-13T08:18:49.077Z,0.30
2023-03-13T08:21:23.344Z,0.40
2023-03-13T08:23:53.585Z,0.35
2023-03-13T08:26:22.078Z,0.20
2023-03-13T08:28:53.097Z,0.40
2023-03-13T08:31:24.992Z,0.43
2023-03-13T08:33:56.375Z,0.60
2023-03-13T08:36:25.051Z,0.50
2023-03-13T08:38:57.879Z,0.90
2023-03-13T08:41:26.397Z,3.97
2023-03-13T08:43:53.278Z,4.10
2023-03-13T08:46:20.084Z,2.75
2023-03-13T08:48:54.371Z,0.95
2023-03-13T08:51:23.625Z,2.03
2023-03-13T08:53:51.215Z,0.60
2023-03-13T08:56:20.549Z,0.70
2023-03-13T08:59:01.184Z,0.60
2023-03-13T09:01:30.364Z,0.60
2023-03-13T09:03:57.850Z,0.28
2023-03-13T09:06:24.443Z,0.05
2023-03-13T09:08:50.886Z,0.35
2023-03-13T09:11:20.396Z,0.40
2023-03-13T09:13:49.268Z,0.22
2023-03-13T09:16:21.401Z,0.20
2023-03-13T09:18:49.147Z,0.38
2023-03-13T09:21:23.884Z,0.40
2023-03-13T09:23:51.261Z,0.15
2023-03-13T09:26:21.006Z,0.20
2023-03-13T09:28:49.367Z,0.38
2023-03-13T09:31:34.411Z,0.32
2023-03-13T09:34:01.158Z,0.32
2023-03-13T09:36:28.464Z,0.10
2023-03-13T09:38:57.454Z,0.10
2023-03-13T09:41:40.635Z,0.20
2023-03-13T09:44:29.121Z,0.20
2023-03-13T09:46:58.504Z,0.10
2023-03-13T09:49:44.064Z,0.10
2023-03-13T09:52:31.469Z,0.60
2023-03-13T09:55:06.174Z,0.30
2023-03-13T09:57:35.955Z,0.80
2023-03-13T10:00:12.765Z,0.25
2023-03-13T10:02:40.281Z,0.40
2023-03-13T10:05:06.587Z,0.20
2023-03-13T10:07:32.997Z,0.13
2023-03-13T10:10:01.401Z,0.20
2023-03-13T10:12:32.681Z,0.40
2023-03-13T10:15:20.411Z,0.20
2023-03-13T10:17:46.939Z,0.20
2023-03-13T10:20:28.194Z,0.10
2023-03-13T10:23:00.527Z,10.27
2023-03-13T10:25:32.180Z,0.30
2023-03-13T10:27:58.938Z,0.30
2023-03-13T10:30:31.724Z,0.45
2023-03-13T10:33:22.079Z,0.30
2023-03-13T10:36:00.440Z,0.25
2023-03-13T10:38:26.855Z,0.10
2023-03-13T10:41:18.846Z,0.20
2023-03-13T10:43:54.351Z,0.13
2023-03-13T10:46:29.442Z,0.20
2023-03-13T10:49:01.658Z,0.20
2023-03-13T10:51:40.420Z,0.20
2023-03-13T10:54:21.970Z,0.30
2023-03-13T10:56:49.762Z,0.30
2023-03-13T10:59:24.900Z,1.05
2023-03-13T11:01:52.988Z,0.20
2023-03-13T11:04:34.809Z,0.30
2023-03-13T11:07:04.469Z,0.40
2023-03-13T11:09:32.229Z,0.20
2023-03-13T11:12:24.106Z,0.43
2023-03-13T11:14:57.805Z,0.28
2023-03-13T11:17:29.477Z,0.35
2023-03-13T11:20:05.794Z,1.42
2023-03-13T11:22:45.891Z,0.80
2023-03-13T11:25:20.699Z,0.50
2023-03-13T11:28:21.115Z,0.80
2023-03-13T11:31:02.973Z,0.80
2023-03-13T11:33:38.710Z,0.35
2023-03-13T11:36:18.800Z,0.30
2023-03-13T11:39:11.988Z,0.30
2023-03-13T11:42:03.007Z,0.40
2023-03-13T11:44:51.816Z,0.50
2023-03-13T11:47:42.506Z,0.52
2023-03-13T11:50:19.621Z,0.60
2023-03-13T11:53:22.796Z,0.50
2023-03-13T11:56:06.421Z,0.50
2023-03-13T11:58:35.745Z,0.50
2023-03-13T12:01:31.578Z,0.40
2023-03-13T12:04:15.654Z,0.30
2023-03-13T12:06:49.844Z,0.40
2023-03-13T12:09:20.325Z,0.50
2023-03-13T12:12:04.586Z,0.30
2023-03-13T12:14:49.395Z,0.38
2023-03-13T12:17:39.155Z,0.30
2023-03-13T12:20:26.615Z,0.20
2023-03-13T12:23:08.139Z,0.35
2023-03-13T12:26:01.192Z,0.30
2023-03-13T12:28:45.618Z,0.20
2023-03-13T12:31:30.968Z,0.32
2023-03-13T12:34:15.010Z,0.28
2023-03-13T12:36:55.694Z,0.20
2023-03-13T12:39:24.796Z,0.30
2023-03-13T12:42:31.370Z,0.30
2023-03-13T12:44:59.293Z,0.32
2023-03-13T12:47:34.326Z,0.38
2023-03-13T12:50:36.640Z,0.20
2023-03-13T12:53:20.436Z,0.20
2023-03-13T12:56:21.896Z,0.20
2023-03-13T12:59:15.430Z,0.30
2023-03-13T13:01:51.079Z,0.10
2023-03-13T13:04:23.771Z,0.30
2023-03-13T13:06:55.918Z,0.10
2023-03-13T13:09:30.781Z,0.28
2023-03-13T13:12:22.368Z,0.22
2023-03-13T13:14:50.087Z,0.20
2023-03-13T13:17:20.688Z,0.20
2023-03-13T13:19:47.874Z,0.30
2023-03-13T13:22:37.408Z,0.30
2023-03-13T13:25:17.919Z,0.20
2023-03-13T13:27:44.357Z,0.17
2023-03-13T13:30:19.582Z,0.30
2023-03-13T13:32:55.478Z,0.20
2023-03-13T13:35:30.828Z,0.30
2023-03-13T13:38:19.046Z,0.50
2023-03-13T13:40:58.901Z,0.30
2023-03-13T13:43:25.570Z,0.20
2023-03-13T13:46:07.222Z,0.30
2023-03-13T13:48:43.569Z,0.20
2023-03-13T13:51:23.933Z,0.20
2023-03-13T13:53:56.869Z,0.35
2023-03-13T13:56:32.507Z,0.35
2023-03-13T13:59:05.413Z,0.10
2023-03-13T14:01:33.917Z,0.20
2023-03-13T14:04:27.862Z,0.40
2023-03-13T14:06:59.145Z,0.30
2023-03-13T14:09:41.774Z,0.55
2023-03-13T14:12:36.171Z,0.50
2023-03-13T14:15:17.484Z,0.30
2023-03-13T14:17:55.099Z,0.45
2023-03-13T14:20:31.387Z,0.45
2023-03-13T14:23:02.345Z,0.20
2023-03-13T14:25:42.776Z,0.40
2023-03-13T14:28:23.527Z,0.40
2023-03-13T14:30:53.108Z,0.40
2023-03-13T14:33:21.063Z,0.50
2023-03-13T14:35:50.334Z,0.20
2023-03-13T14:38:25.985Z,0.20
2023-03-13T14:40:55.399Z,0.40
2023-03-13T14:43:33.722Z,0.50
2023-03-13T14:46:14.258Z,0.30
2023-03-13T14:48:42.106Z,0.30
2023-03-13T14:51:16.069Z,0.82
2023-03-13T14:54:01.182Z,0.30
2023-03-13T14:56:34.927Z,0.50
2023-03-13T14:59:09.038Z,0.70
2023-03-13T15:01:35.485Z,5.78
2023-03-13T15:04:01.915Z,0.98
2023-03-13T15:06:28.925Z,1.02
2023-03-13T15:09:17.586Z,0.30
2023-03-13T15:12:05.727Z,0.22
2023-03-13T15:14:38.024Z,0.38
2023-03-13T15:17:21.398Z,0.40
2023-03-13T15:19:54.106Z,0.20
2023-03-13T15:22:27.229Z,0.30
2023-03-13T15:25:05.674Z,0.50
2023-03-13T15:27:34.103Z,0.30
2023-03-13T15:30:00.725Z,0.20
2023-03-13T15:32:37.343Z,0.10
2023-03-13T15:35:23.151Z,0.30
2023-03-13T15:37:50.673Z,0.10
2023-03-13T15:40:17.690Z,0.30
2023-03-13T15:42:44.180Z,0.35
2023-03-13T15:45:12.009Z,0.30
2023-03-13T15:47:38.430Z,0.13
2023-03-13T15:50:06.911Z,0.40
2023-03-13T15:52:36.517Z,0.30
2023-03-13T15:55:07.240Z,0.70
2023-03-13T15:57:42.389Z,1.08
2023-03-13T16:00:34.766Z,0.40
2023-03-13T16:03:01.290Z,0.25
2023-03-13T16:05:28.999Z,4.28
2023-03-13T16:07:56.467Z,1.30
2023-03-13T16:10:27.290Z,0.30
2023-03-13T16:12:57.869Z,0.30
2023-03-13T16:15:24.573Z,0.40
2023-03-13T16:17:50.969Z,0.43
2023-03-13T16:20:20.888Z,0.57
2023-03-13T16:22:50.661Z,0.43
2023-03-13T16:25:18.801Z,0.70
2023-03-13T16:27:46.237Z,0.30
2023-03-13T16:30:26.897Z,0.55
2023-03-13T16:32:53.616Z,0.80
2023-03-13T16:35:21.740Z,0.60
2023-03-13T16:37:57.724Z,0.60
2023-03-13T16:40:33.007Z,0.60
2023-03-13T16:43:00.423Z,1.13
2023-03-13T16:45:27.601Z,0.93
2023-03-13T16:47:54.257Z,0.65
2023-03-13T16:50:23.376Z,0.70
2023-03-13T16:53:07.161Z,1.38
2023-03-13T16:55:38.634Z,0.30
2023-03-13T16:58:05.537Z,0.40
2023-03-13T17:00:32.650Z,0.43
2023-03-13T17:02:59.702Z,2.38
2023-03-13T17:05:27.691Z,0.70
2023-03-13T17:08:01.233Z,0.50
2023-03-13T17:10:31.832Z,2.25
2023-03-13T17:13:05.448Z,0.70
2023-03-13T17:15:32.039Z,1.00
2023-03-13T17:18:04.718Z,0.60
2023-03-13T17:20:31.171Z,0.77
2023-03-13T17:23:01.226Z,0.80
2023-03-13T17:25:31.328Z,0.90
2023-03-13T17:27:57.748Z,0.70
2023-03-13T17:30:28.318Z,1.40
2023-03-13T17:32:54.823Z,0.70
2023-03-13T17:35:22.221Z,0.70
2023-03-13T17:37:49.429Z,0.70
2023-03-13T17:40:20.999Z,0.57
2023-03-13T17:42:52.664Z,0.90
2023-03-13T17:45:19.523Z,1.95
2023-03-13T17:47:46.969Z,1.85
2023-03-13T17:50:24.131Z,2.20
2023-03-13T17:52:50.510Z,2.85
2023-03-13T17:55:18.316Z,1.70
2023-03-13T17:57:49.480Z,1.92
2023-03-13T18:00:24.018Z,1.95
2023-03-13T18:02:50.595Z,3.00
2023-03-13T18:05:17.523Z,2.63
2023-03-13T18:07:44.390Z,2.30
2023-03-13T18:10:19.441Z,2.53
2023-03-13T18:12:56.033Z,2.95
2023-03-13T18:15:25.132Z,3.08
2023-03-13T18:17:52.116Z,3.15
2023-03-13T18:20:25.005Z,3.53
2023-03-13T18:22:51.623Z,3.30
2023-03-13T18:25:18.181Z,3.53
2023-03-13T18:27:44.628Z,5.28
2023-03-13T18:30:20.788Z,4.30
2023-03-13T18:32:47.833Z,3.90
2023-03-13T18:35:15.734Z,4.00
2023-03-13T18:37:46.984Z,4.20
2023-03-13T18:40:23.133Z,2.60
2023-03-13T18:42:50.149Z,1.48
2023-03-13T18:45:19.637Z,1.40
2023-03-13T18:47:48.036Z,1.38
2023-03-13T18:50:29.838Z,1.20
2023-03-13T18:52:58.604Z,1.40
2023-03-13T18:55:26.890Z,1.80
2023-03-13T18:57:56.489Z,1.92
2023-03-13T19:00:28.943Z,3.38
2023-03-13T19:02:55.600Z,3.20
2023-03-13T19:05:22.591Z,2.92
2023-03-13T19:07:49.043Z,3.75
2023-03-13T19:10:24.122Z,3.10
2023-03-13T19:12:50.837Z,2.90
2023-03-13T19:23:09.590Z,2.10
2023-03-13T19:25:35.999Z,2.17
2023-03-13T19:28:02.539Z,2.10
2023-03-13T19:30:38.045Z,2.28
2023-03-13T19:33:04.544Z,2.00
2023-03-13T19:35:31.136Z,2.85
2023-03-13T19:37:57.613Z,2.55
2023-03-13T19:40:28.639Z,2.47
2023-03-13T19:42:55.112Z,2.42
2023-03-13T19:45:29.345Z,2.90
2023-03-13T19:47:55.820Z,2.50
2023-03-13T19:50:27.506Z,2.85
2023-03-13T19:52:54.035Z,2.40
2023-03-13T19:55:21.548Z,2.60
2023-03-13T19:58:06.654Z,3.15
2023-03-13T20:00:33.268Z,3.58
2023-03-13T20:03:15.647Z,3.40
2023-03-13T20:05:44.482Z,3.33
2023-03-13T20:08:10.971Z,3.42
2023-03-13T20:23:40.594Z,3.80
2023-03-13T20:26:09.909Z,4.00
2023-03-13T20:28:37.624Z,4.30
2023-03-13T20:31:04.753Z,4.13
2023-03-13T20:33:31.324Z,4.50
2023-03-13T20:36:00.366Z,4.05
2023-03-13T20:38:27.233Z,4.70
2023-03-13T20:40:55.239Z,4.72
2023-03-13T20:43:22.442Z,4.72
2023-03-13T20:45:49.217Z,4.82
2023-03-13T20:48:16.440Z,4.60
2023-03-13T20:50:43.268Z,4.53
2023-03-13T20:53:11.124Z,4.82
2023-03-13T20:55:38.482Z,4.15
2023-03-13T20:58:21.540Z,4.75
2023-03-13T21:00:48.497Z,4.53
2023-03-13T21:03:17.208Z,4.60
2023-03-13T21:05:45.675Z,4.03
2023-03-13T21:08:12.060Z,4.13
2023-03-13T21:10:39.922Z,4.03
2023-03-13T21:13:09.012Z,3.60
2023-03-13T21:15:35.754Z,3.40
2023-03-13T21:18:02.543Z,3.80
2023-03-13T21:20:30.554Z,3.83
2023-03-13T21:22:57.071Z,3.45
2023-03-13T21:25:23.871Z,3.95
2023-03-13T21:27:50.611Z,4.15
2023-03-13T21:30:20.571Z,3.78
2023-03-13T21:32:47.862Z,4.03
2023-03-13T21:35:15.075Z,3.42
2023-03-13T21:37:51.372Z,3.97
2023-03-13T21:40:18.182Z,3.58
2023-03-13T21:42:50.857Z,3.63
2023-03-13T21:45:17.281Z,1.60
2023-03-13T21:47:43.632Z,1.60
2023-03-13T21:50:10.970Z,1.30
2023-03-13T21:52:40.862Z,1.25
2023-03-13T21:55:10.919Z,1.20
2023-03-13T21:57:37.349Z,0.80
2023-03-13T22:00:07.906Z,0.70
2023-03-13T22:02:37.710Z,0.70
2023-03-13T22:05:05.126Z,0.47
2023-03-13T22:07:31.646Z,0.50
2023-03-13T22:09:59.150Z,0.50
2023-03-13T22:12:26.374Z,0.40
2023-03-13T22:14:53.264Z,0.43
2023-03-13T22:17:20.484Z,0.30
2023-03-13T22:19:47.182Z,0.57
2023-03-13T22:22:14.044Z,0.32
2023-03-13T22:24:40.488Z,0.50
2023-03-13T22:27:09.011Z,0.30
2023-03-13T22:29:36.207Z,0.30
2023-03-13T22:32:03.277Z,0.38
2023-03-13T22:34:30.018Z,0.30
2023-03-13T22:36:56.521Z,0.30
2023-03-13T22:39:23.074Z,0.30
2023-03-13T22:41:49.569Z,0.30
2023-03-13T22:44:16.992Z,0.40
2023-03-13T22:46:43.405Z,0.32
2023-03-13T22:49:09.869Z,0.20
2023-03-13T22:51:36.236Z,0.30
2023-03-13T22:54:02.664Z,0.30
2023-03-13T22:56:29.033Z,0.35
2023-03-13T22:58:55.462Z,0.38
2023-03-13T23:01:22.822Z,0.40
2023-03-13T23:03:51.327Z,0.30
2023-03-13T23:06:21.199Z,0.38
2023-03-13T23:08:47.880Z,0.32
2023-03-13T23:11:17.254Z,0.40
2023-03-13T23:13:43.850Z,0.50
2023-03-13T23:16:11.778Z,0.30
2023-03-13T23:18:42.639Z,0.30
2023-03-13T23:21:11.870Z,0.30
2023-03-13T23:23:38.626Z,0.22
2023-03-13T23:26:08.620Z,0.30
2023-03-13T23:28:36.617Z,0.30
2023-03-13T23:31:17.322Z,0.35
2023-03-13T23:33:43.950Z,0.35
2023-03-13T23:36:13.813Z,0.30
2023-03-13T23:38:40.420Z,0.30
2023-03-13T23:41:08.692Z,0.30
2023-03-13T23:43:35.498Z,0.50
2023-03-13T23:46:02.091Z,0.38
2023-03-13T23:48:28.516Z,0.30
2023-03-13T23:50:55.067Z,0.47
2023-03-13T23:53:21.530Z,0.30
2023-03-13T23:55:47.953Z,0.30
2023-03-13T23:58:14.321Z,0.30
